Time;durP1;ratioP1;P1;durP2;ratioP2;P2;SDS_P1;SDS_P2;PMS_P1;PMS_P2;Temp;Humidity;BMP_temperature;BMP_pressure;BME280_temperature;BME280_humidity;BME280_pressure;Samples;Min_cycle;Max_cycle;Signal;HPM_P1;HPM_P2
2023/08/03 00:00:37;;;;;;;4.60;1.30;;;;;;;13.67;100.00;98501.41;5014373;28;20419;-77
2023/08/03 00:03:10;;;;;;;4.00;1.48;;;;;;;13.70;100.00;98502.63;5050167;28;20429;-77
2023/08/03 00:05:46;;;;;;;5.15;1.35;;;;;;;13.68;100.00;98502.19;5011689;28;20428;-78
2023/08/03 00:08:14;;;;;;;5.07;1.40;;;;;;;13.77;100.00;98502.81;5008484;28;20908;-79
2023/08/03 00:10:43;;;;;;;5.30;1.48;;;;;;;13.75;100.00;98505.91;5012789;28;20426;-79
2023/08/03 00:13:11;;;;;;;4.47;1.50;;;;;;;13.77;100.00;98509.06;5016834;28;20415;-78
2023/08/03 00:15:44;;;;;;;9.68;1.50;;;;;;;13.80;100.00;98499.38;5009675;28;20430;-78
2023/08/03 00:18:12;;;;;;;2.97;1.30;;;;;;;13.87;100.00;98506.94;5003042;28;20953;-79
2023/08/03 00:20:40;;;;;;;4.30;1.60;;;;;;;13.90;100.00;98508.97;4998988;28;20810;-78
2023/08/03 00:23:10;;;;;;;5.43;1.48;;;;;;;13.93;100.00;98508.25;4996902;28;20426;-82
2023/08/03 00:25:43;;;;;;;4.65;1.50;;;;;;;13.97;100.00;98500.13;5005841;28;20426;-78
2023/08/03 00:28:18;;;;;;;4.07;1.47;;;;;;;13.96;100.00;98493.84;5017092;28;20427;-79
2023/08/03 00:30:51;;;;;;;7.60;1.60;;;;;;;13.99;100.00;98495.09;5006449;28;20947;-78
2023/08/03 00:33:24;;;;;;;6.53;1.60;;;;;;;13.97;100.00;98498.19;5007503;28;20476;-78
2023/08/03 00:35:58;;;;;;;4.05;1.50;;;;;;;13.95;100.00;98492.28;4996317;28;20433;-80
2023/08/03 00:38:32;;;;;;;8.10;1.60;;;;;;;13.95;100.00;98503.22;5014017;28;20458;-78
2023/08/03 00:41:00;;;;;;;6.72;1.67;;;;;;;13.92;100.00;98495.72;5003102;28;20903;-78
2023/08/03 00:43:29;;;;;;;7.80;1.63;;;;;;;13.90;100.00;98508.97;4997443;28;20922;-78
2023/08/03 00:45:57;;;;;;;7.20;1.60;;;;;;;13.94;100.00;98501.63;5001572;28;20442;-82
2023/08/03 00:48:30;;;;;;;5.80;1.70;;;;;;;13.94;100.00;98498.91;5009337;28;20429;-80
2023/08/03 00:51:03;;;;;;;3.70;1.50;;;;;;;13.92;100.00;98496.53;5029926;28;20433;-78
2023/08/03 00:53:38;;;;;;;7.35;1.80;;;;;;;13.94;100.00;98496.16;5001787;28;20423;-79
2023/08/03 00:56:11;;;;;;;5.47;1.60;;;;;;;14.00;100.00;98486.53;5010344;28;20427;-78
2023/08/03 00:58:40;;;;;;;7.13;1.73;;;;;;;14.04;100.00;98492.88;5007946;28;20427;-78
2023/08/03 01:01:08;;;;;;;6.40;1.80;;;;;;;14.05;100.00;98499.16;5007497;28;20426;-78
2023/08/03 01:03:36;;;;;;;6.90;1.92;;;;;;;14.05;100.00;98491.72;5005890;28;20453;-78
2023/08/03 01:06:05;;;;;;;6.35;1.75;;;;;;;14.13;100.00;98500.91;5028517;28;20446;-78
2023/08/03 01:08:39;;;;;;;5.32;1.95;;;;;;;14.27;100.00;98511.34;5006346;28;20432;-78
2023/08/03 01:11:08;;;;;;;5.90;1.98;;;;;;;14.32;100.00;98493.84;4997621;28;20422;-78
2023/08/03 01:13:36;;;;;;;5.53;2.00;;;;;;;14.25;100.00;98498.03;5006214;28;20427;-78
2023/08/03 01:16:04;;;;;;;8.38;2.00;;;;;;;14.26;100.00;98491.38;4996787;28;20524;-78
2023/08/03 01:18:33;;;;;;;5.03;1.98;;;;;;;14.31;100.00;98487.59;5008272;28;20420;-79
2023/08/03 01:21:01;;;;;;;7.05;2.10;;;;;;;14.34;100.00;98489.63;5010179;28;20434;-79
2023/08/03 01:23:36;;;;;;;10.43;2.33;;;;;;;14.34;100.00;98497.03;5020468;28;20450;-78
2023/08/03 01:26:09;;;;;;;6.20;2.20;;;;;;;14.42;100.00;98507.75;5016826;28;20434;-78
2023/08/03 01:28:37;;;;;;;5.22;2.10;;;;;;;14.41;100.00;98491.72;5041504;28;20445;-78
2023/08/03 01:31:06;;;;;;;5.93;2.08;;;;;;;14.41;100.00;98497.19;5013924;28;20949;-79
2023/08/03 01:33:34;;;;;;;7.18;2.30;;;;;;;14.41;100.00;98497.97;5010677;28;21200;-79
2023/08/03 01:36:08;;;;;;;5.10;2.00;;;;;;;14.41;100.00;98495.22;5005172;28;20941;-82
2023/08/03 01:38:42;;;;;;;7.55;2.20;;;;;;;14.41;100.00;98497.97;5032339;28;20440;-78
2023/08/03 01:41:11;;;;;;;6.40;2.08;;;;;;;14.45;100.00;98489.84;4999062;28;20428;-79
2023/08/03 01:43:44;;;;;;;4.75;2.20;;;;;;;14.48;100.00;98491.06;5002449;28;20438;-79
2023/08/03 01:46:18;;;;;;;8.07;2.30;;;;;;;14.46;100.00;98488.69;5002170;28;22110;-79
2023/08/03 01:48:51;;;;;;;5.00;2.20;;;;;;;14.48;100.00;98491.84;5005793;28;20916;-80
2023/08/03 01:51:24;;;;;;;7.50;2.00;;;;;;;14.48;100.00;98488.34;5003141;28;20904;-80
2023/08/03 01:53:54;;;;;;;5.65;2.08;;;;;;;14.46;100.00;98485.97;4998891;28;20440;-78
2023/08/03 01:56:22;;;;;;;6.20;2.35;;;;;;;14.49;100.00;98485.22;5000142;28;20440;-79
2023/08/03 01:58:50;;;;;;;6.97;2.22;;;;;;;14.47;100.00;98476.56;4995056;28;20424;-79
2023/08/03 02:01:23;;;;;;;7.70;2.10;;;;;;;14.50;100.00;98475.06;5000309;28;20438;-79
2023/08/03 02:03:51;;;;;;;4.93;2.20;;;;;;;14.49;100.00;98474.28;5006036;28;20417;-80
2023/08/03 02:06:25;;;;;;;6.60;2.27;;;;;;;14.49;100.00;98479.75;5001050;28;20473;-79
2023/08/03 02:08:59;;;;;;;7.85;2.25;;;;;;;14.49;100.00;98473.50;5007520;28;20439;-80
2023/08/03 02:11:34;;;;;;;9.45;2.10;;;;;;;14.51;100.00;98473.91;5027706;28;20417;-79
2023/08/03 02:14:07;;;;;;;5.77;2.20;;;;;;;14.48;100.00;98467.22;5024618;28;20501;-80
2023/08/03 02:16:41;;;;;;;4.55;2.20;;;;;;;14.48;100.00;98463.69;5005111;28;20457;-81
2023/08/03 02:19:14;;;;;;;4.82;1.83;;;;;;;14.44;100.00;98463.63;4993756;28;20426;-82
2023/08/03 02:21:47;;;;;;;8.90;2.30;;;;;;;14.50;100.00;98459.47;4995322;28;20481;-81
2023/08/03 02:24:21;;;;;;;4.20;1.98;;;;;;;14.53;100.00;98453.25;5015211;28;20516;-83
2023/08/03 02:26:49;;;;;;;7.93;2.17;;;;;;;14.54;100.00;98456.78;5003346;28;20459;-79
2023/08/03 02:29:23;;;;;;;5.55;2.10;;;;;;;14.46;100.00;98447.66;5014045;28;20421;-80
2023/08/03 02:31:56;;;;;;;7.70;2.30;;;;;;;14.47;100.00;98454.69;5001274;28;20604;-80
2023/08/03 02:34:29;;;;;;;5.38;1.90;;;;;;;14.49;100.00;98459.81;5000826;28;20440;-80
2023/08/03 02:37:04;;;;;;;7.53;2.20;;;;;;;14.45;100.00;98455.03;5004248;28;20430;-80
2023/08/03 02:39:39;;;;;;;5.60;1.95;;;;;;;14.49;100.00;98455.13;4998076;28;20432;-79
2023/08/03 02:42:08;;;;;;;6.43;2.00;;;;;;;14.44;100.00;98455.41;4997852;28;20446;-80
2023/08/03 02:44:44;;;;;;;9.30;2.17;;;;;;;14.42;100.00;98455.78;5001999;28;21090;-80
2023/08/03 02:47:13;;;;;;;5.88;2.10;;;;;;;14.38;100.00;98448.66;4995803;28;20442;-79
2023/08/03 02:49:47;;;;;;;7.05;2.00;;;;;;;14.38;100.00;98449.44;4997156;28;21925;-80
2023/08/03 02:52:15;;;;;;;4.60;1.83;;;;;;;14.37;100.00;98447.06;4997368;28;20424;-80
2023/08/03 02:54:50;;;;;;;5.18;1.92;;;;;;;14.36;100.00;98442.72;4996207;28;20429;-79
2023/08/03 02:57:23;;;;;;;7.47;2.07;;;;;;;14.34;100.00;98440.38;4997917;28;20464;-82
2023/08/03 02:59:53;;;;;;;6.15;1.90;;;;;;;14.38;100.00;98440.44;5024720;28;20434;-79
2023/08/03 03:02:23;;;;;;;4.95;1.80;;;;;;;14.34;100.00;98450.53;5027311;28;20428;-81
2023/08/03 03:04:52;;;;;;;7.47;1.90;;;;;;;14.37;100.00;98447.84;4995478;28;20942;-84
2023/08/03 03:07:21;;;;;;;7.90;1.85;;;;;;;14.37;100.00;98438.84;4999507;28;20438;-80
2023/08/03 03:09:59;;;;;;;6.00;2.10;;;;;;;14.39;100.00;98440.09;4994720;28;20428;-80
2023/08/03 03:12:27;;;;;;;8.25;2.00;;;;;;;14.39;100.00;98440.09;5006886;28;20432;-79
2023/08/03 03:15:00;;;;;;;9.80;1.90;;;;;;;14.35;100.00;98435.66;5001361;28;20441;-79
2023/08/03 03:17:28;;;;;;;3.38;1.70;;;;;;;14.34;100.00;98439.59;4999305;28;21064;-81
2023/08/03 03:20:03;;;;;;;5.68;1.95;;;;;;;14.36;100.00;98440.81;5033212;28;20919;-80
2023/08/03 03:22:36;;;;;;;7.97;1.90;;;;;;;14.42;100.00;98441.31;5027364;28;20898;-80
2023/08/03 03:25:07;;;;;;;3.50;1.63;;;;;;;14.40;100.00;98430.72;5019672;28;21161;-79
2023/08/03 03:27:35;;;;;;;8.02;1.90;;;;;;;14.38;100.00;98432.22;5017256;28;20432;-80
2023/08/03 03:30:04;;;;;;;5.32;2.10;;;;;;;14.37;100.00;98428.69;5007107;28;20989;-80
2023/08/03 03:32:33;;;;;;;7.07;1.80;;;;;;;14.40;100.00;98425.25;5004750;28;20459;-83
2023/08/03 03:35:07;;;;;;;8.07;1.70;;;;;;;14.36;100.00;98418.91;5001909;28;20446;-82
2023/08/03 03:37:36;;;;;;;6.07;1.90;;;;;;;14.37;100.00;98416.97;5016775;28;20426;-80
2023/08/03 03:40:12;;;;;;;5.93;2.05;;;;;;;14.39;100.00;98420.13;5005772;28;20435;-79
2023/08/03 03:42:46;;;;;;;6.15;2.00;;;;;;;14.34;100.00;98412.22;5004664;28;20426;-81
2023/08/03 03:45:19;;;;;;;12.75;2.33;;;;;;;14.37;100.00;98412.28;5004391;28;20486;-79
2023/08/03 03:47:48;;;;;;;7.87;2.27;;;;;;;14.40;100.00;98405.28;5001996;28;20446;-80
2023/08/03 03:50:21;;;;;;;8.02;2.10;;;;;;;14.37;100.00;98400.53;5003580;28;20922;-83
2023/08/03 03:52:50;;;;;;;6.63;2.03;;;;;;;14.44;100.00;98412.44;5034863;28;20901;-82
2023/08/03 03:55:20;;;;;;;7.78;2.15;;;;;;;14.42;100.00;98411.22;5006154;28;20438;-84
2023/08/03 03:57:55;;;;;;;5.72;1.73;;;;;;;14.42;100.00;98409.25;5012605;28;21046;-80
2023/08/03 04:00:29;;;;;;;12.45;2.20;;;;;;;14.42;100.00;98401.03;5000613;28;20500;-80
2023/08/03 04:03:02;;;;;;;8.23;2.28;;;;;;;14.41;100.00;98399.44;5003913;28;20432;-79
2023/08/03 04:05:36;;;;;;;8.85;2.08;;;;;;;14.45;100.00;98397.56;5003822;28;20437;-80
2023/08/03 04:08:05;;;;;;;8.10;1.90;;;;;;;14.44;100.00;98401.50;5005020;28;20924;-79
2023/08/03 04:10:36;;;;;;;6.13;2.10;;;;;;;14.45;100.00;98400.31;4997235;28;20436;-80
2023/08/03 04:13:04;;;;;;;6.50;2.10;;;;;;;14.46;100.00;98399.16;5001327;28;20430;-80
2023/08/03 04:15:37;;;;;;;8.40;2.00;;;;;;;14.49;100.00;98405.88;4996605;28;20430;-79
2023/08/03 04:18:05;;;;;;;6.75;2.05;;;;;;;14.50;100.00;98399.25;5001855;28;20430;-81
2023/08/03 04:20:35;;;;;;;7.93;1.98;;;;;;;14.48;100.00;98406.22;5005784;28;20420;-80
2023/08/03 04:23:08;;;;;;;4.95;1.88;;;;;;;14.51;100.00;98408.25;5009023;28;20960;-80
2023/08/03 04:25:44;;;;;;;6.35;1.90;;;;;;;14.62;100.00;98404.59;5025211;28;20410;-81
2023/08/03 04:28:19;;;;;;;4.57;1.80;;;;;;;14.57;100.00;98412.25;5014059;28;20446;-78
2023/08/03 04:30:47;;;;;;;6.70;1.90;;;;;;;14.56;100.00;98403.25;5038902;28;20487;-79
2023/08/03 04:33:21;;;;;;;4.95;1.98;;;;;;;14.57;100.00;98401.31;5001492;28;20431;-79
2023/08/03 04:35:54;;;;;;;7.75;2.03;;;;;;;14.61;100.00;98402.97;5029105;28;20457;-79
2023/08/03 04:38:26;;;;;;;6.90;2.00;;;;;;;14.63;100.00;98405.38;5006964;28;20988;-80
2023/08/03 04:41:00;;;;;;;4.70;1.95;;;;;;;14.66;100.00;98403.84;5032859;28;20436;-79
2023/08/03 04:43:37;;;;;;;7.68;1.88;;;;;;;14.67;100.00;98399.97;4998032;28;20791;-79
2023/08/03 04:46:07;;;;;;;7.13;2.10;;;;;;;14.67;100.00;98394.50;4999604;28;20425;-79
2023/08/03 04:48:40;;;;;;;7.18;1.80;;;;;;;14.72;100.00;98397.72;5001815;28;20433;-78
2023/08/03 04:51:09;;;;;;;7.88;2.20;;;;;;;14.76;100.00;98392.28;4994777;28;20923;-79
2023/08/03 04:53:39;;;;;;;7.93;2.20;;;;;;;14.79;100.00;98403.31;4997386;28;20441;-79
2023/08/03 04:56:09;;;;;;;9.50;1.97;;;;;;;14.75;100.00;98393.47;5014119;28;20430;-77
2023/08/03 04:58:38;;;;;;;5.63;1.90;;;;;;;14.73;100.00;98396.56;4999114;28;20429;-79
2023/08/03 05:01:06;;;;;;;6.30;1.88;;;;;;;14.81;100.00;98391.22;4997830;28;20520;-80
2023/08/03 05:03:34;;;;;;;5.18;1.88;;;;;;;14.76;100.00;98398.59;4994538;28;20441;-84
2023/08/03 05:06:07;;;;;;;7.68;1.90;;;;;;;14.72;100.00;98395.00;4999631;28;20960;-81
2023/08/03 05:08:40;;;;;;;7.18;1.92;;;;;;;14.68;100.00;98383.19;5008283;28;20777;-80
2023/08/03 05:11:10;;;;;;;6.90;2.40;;;;;;;14.70;100.00;98394.53;5009220;28;20429;-79
2023/08/03 05:13:40;;;;;;;6.10;1.77;;;;;;;14.71;100.00;98390.66;5002051;28;20441;-79
2023/08/03 05:16:08;;;;;;;5.82;1.92;;;;;;;14.74;100.00;98384.44;5004777;28;20424;-79
2023/08/03 05:18:37;;;;;;;5.70;1.90;;;;;;;14.71;100.00;98381.66;5006767;28;20905;-78
2023/08/03 05:21:10;;;;;;;4.40;1.60;;;;;;;14.70;100.00;98383.59;5013292;28;20446;-78
2023/08/03 05:23:39;;;;;;;7.25;1.77;;;;;;;14.69;100.00;98382.00;5008686;28;20432;-79
2023/08/03 05:26:07;;;;;;;5.80;1.80;;;;;;;14.67;100.00;98389.03;5017359;28;20427;-78
2023/08/03 05:28:42;;;;;;;7.37;1.90;;;;;;;14.69;100.00;98387.47;5013143;28;20424;-78
2023/08/03 05:31:15;;;;;;;6.85;1.83;;;;;;;14.70;100.00;98380.84;5000437;28;20432;-78
2023/08/03 05:33:48;;;;;;;5.43;1.80;;;;;;;14.68;100.00;98383.19;4999975;28;20433;-77
2023/08/03 05:36:17;;;;;;;6.10;1.63;;;;;;;14.64;100.00;98387.81;5002599;28;20437;-79
2023/08/03 05:38:52;;;;;;;5.90;1.73;;;;;;;14.67;100.00;98383.56;5000433;28;20428;-79
2023/08/03 05:41:27;;;;;;;5.75;2.10;;;;;;;14.69;100.00;98389.44;4999424;28;21014;-79
2023/08/03 05:43:57;;;;;;;8.00;2.03;;;;;;;14.66;100.00;98388.22;4996191;28;20460;-81
2023/08/03 05:46:31;;;;;;;10.43;2.00;;;;;;;14.66;100.00;98377.25;4996460;28;20910;-80
2023/08/03 05:48:59;;;;;;;8.50;2.10;;;;;;;14.69;100.00;98381.22;5004525;28;20449;-79
2023/08/03 05:51:33;;;;;;;6.20;1.80;;;;;;;14.67;100.00;98391.75;5002176;28;20522;-80
2023/08/03 05:54:01;;;;;;;8.68;1.90;;;;;;;14.63;100.00;98384.25;4995488;28;20445;-78
2023/08/03 05:56:36;;;;;;;5.45;1.73;;;;;;;14.67;100.00;98392.53;5001904;28;20423;-78
2023/08/03 05:59:18;;;;;;;6.57;1.98;;;;;;;14.67;100.00;98392.53;4998254;28;20426;-77
2023/08/03 06:01:53;;;;;;;6.35;1.70;;;;;;;14.70;100.00;98396.50;4999992;28;21165;-80
2023/08/03 06:04:26;;;;;;;4.85;1.67;;;;;;;14.67;100.00;98391.75;4995683;28;20438;-79
2023/08/03 06:06:54;;;;;;;6.20;1.80;;;;;;;14.67;100.00;98398.03;4993533;28;20436;-79
2023/08/03 06:09:27;;;;;;;5.85;1.70;;;;;;;14.70;100.00;98393.75;5031320;28;20430;-79
2023/08/03 06:11:55;;;;;;;6.03;1.60;;;;;;;14.74;100.00;98406.34;5033968;28;20508;-78
2023/08/03 06:14:31;;;;;;;5.07;1.70;;;;;;;14.70;100.00;98401.97;5004497;28;20940;-79
2023/08/03 06:16:59;;;;;;;4.40;1.40;;;;;;;14.72;100.00;98402.41;5033646;28;20452;-78
2023/08/03 06:19:33;;;;;;;4.22;1.65;;;;;;;14.79;100.00;98411.53;5001011;28;20461;-80
2023/08/03 06:22:04;;;;;;;4.20;1.52;;;;;;;14.84;100.00;98404.19;5032688;28;20430;-79
2023/08/03 06:24:32;;;;;;;4.18;1.40;;;;;;;14.85;100.00;98408.50;4994892;28;20438;-79
2023/08/03 06:27:06;;;;;;;4.43;1.60;;;;;;;14.90;100.00;98408.19;4997673;28;20440;-79
2023/08/03 06:29:40;;;;;;;3.65;1.27;;;;;;;14.85;100.00;98411.25;4998862;28;20759;-78
2023/08/03 06:32:22;;;;;;;3.80;1.20;;;;;;;14.93;100.00;98404.75;5005290;28;20432;-79
2023/08/03 06:34:50;;;;;;;3.95;1.30;;;;;;;14.87;100.00;98408.91;5004688;28;20491;-80
2023/08/03 06:37:18;;;;;;;3.28;1.30;;;;;;;14.98;100.00;98411.84;4997837;28;20427;-79
2023/08/03 06:39:49;;;;;;;2.42;1.20;;;;;;;15.11;100.00;98410.53;4994923;28;20432;-80
2023/08/03 06:42:22;;;;;;;2.55;1.10;;;;;;;15.16;100.00;98412.94;4999487;28;20434;-80
2023/08/03 06:44:52;;;;;;;3.90;1.17;;;;;;;15.25;100.00;98410.75;5001085;28;20434;-79
2023/08/03 06:47:20;;;;;;;2.65;1.10;;;;;;;15.29;100.00;98410.81;5004962;28;21534;-79
2023/08/03 06:49:53;;;;;;;3.88;1.08;;;;;;;15.34;100.00;98415.97;5004219;28;21298;-80
2023/08/03 06:52:22;;;;;;;2.87;1.10;;;;;;;15.25;100.00;98418.97;5027721;28;20822;-80
2023/08/03 06:54:50;;;;;;;1.65;1.10;;;;;;;15.37;100.00;98418.00;5003432;28;20459;-82
2023/08/03 06:57:18;;;;;;;2.17;0.90;;;;;;;15.45;100.00;98427.09;5029902;28;20555;-78
2023/08/03 06:59:55;;;;;;;1.70;0.90;;;;;;;15.51;100.00;98422.91;4999501;28;20424;-82
2023/08/03 07:02:28;;;;;;;3.58;1.20;;;;;;;15.47;100.00;98420.09;5000735;28;20912;-82
2023/08/03 07:04:56;;;;;;;1.33;0.90;;;;;;;15.56;100.00;98419.03;4997265;28;20441;-81
2023/08/03 07:07:24;;;;;;;1.83;0.80;;;;;;;15.58;100.00;98430.44;5009528;28;20444;-80
2023/08/03 07:09:59;;;;;;;1.25;0.80;;;;;;;15.65;100.00;98431.31;5008072;28;20436;-82
2023/08/03 07:12:32;;;;;;;1.83;0.75;;;;;;;15.62;100.00;98439.50;5003104;28;20474;-82
2023/08/03 07:15:02;;;;;;;2.70;0.70;;;;;;;15.64;100.00;98440.69;4999187;28;20434;-82
2023/08/03 07:17:36;;;;;;;6.47;2.20;;;;;;;15.61;100.00;98446.94;5033291;28;20934;-80
2023/08/03 07:20:08;;;;;;;0.80;0.80;;;;;;;15.55;100.00;98448.41;4995167;28;20466;-79
2023/08/03 07:22:36;;;;;;;1.90;0.90;;;;;;;15.55;100.00;98451.16;5007644;28;20430;-78
2023/08/03 07:25:06;;;;;;;1.13;0.68;;;;;;;15.52;100.00;98451.88;5017221;28;20419;-79
2023/08/03 07:27:40;;;;;;;1.30;0.50;;;;;;;15.50;100.00;98453.41;5013996;28;20424;-81
2023/08/03 07:30:11;;;;;;;1.15;0.70;;;;;;;15.57;100.00;98459.00;4997523;28;20432;-80
2023/08/03 07:32:39;;;;;;;0.60;0.60;;;;;;;15.77;100.00;98459.69;4991164;28;20459;-84
2023/08/03 07:35:13;;;;;;;0.65;0.65;;;;;;;15.89;100.00;98464.22;4986348;28;20456;-84
2023/08/03 07:37:46;;;;;;;1.90;0.70;;;;;;;15.93;100.00;98473.28;4997934;28;20487;-82
2023/08/03 07:40:19;;;;;;;1.40;0.70;;;;;;;16.08;100.00;98471.53;4992320;28;20436;-85
2023/08/03 07:42:48;;;;;;;1.88;0.75;;;;;;;16.18;100.00;98464.63;4990273;28;20436;-84
2023/08/03 07:45:18;;;;;;;1.60;0.80;;;;;;;16.23;100.00;98467.03;4991713;28;20793;-83
2023/08/03 07:47:51;;;;;;;8.33;5.20;;;;;;;16.18;100.00;98468.13;4984148;28;20445;-81
2023/08/03 07:50:19;;;;;;;2.58;0.80;;;;;;;16.15;100.00;98474.38;4988428;28;20437;-82
2023/08/03 07:52:53;;;;;;;1.90;0.70;;;;;;;16.31;100.00;98475.00;5002580;28;20428;-84
2023/08/03 07:55:21;;;;;;;1.95;0.80;;;;;;;16.36;100.00;98473.06;4987675;28;20454;-81
2023/08/03 07:57:49;;;;;;;2.40;0.80;;;;;;;16.25;100.00;98484.69;4984828;28;20460;-82
2023/08/03 08:00:19;;;;;;;0.70;0.70;;;;;;;16.09;100.00;98479.41;4990079;28;20455;-84
2023/08/03 08:02:47;;;;;;;1.00;0.80;;;;;;;16.22;100.00;98487.41;4982800;28;20440;-84
2023/08/03 08:05:15;;;;;;;5.20;2.58;;;;;;;16.07;100.00;98476.22;5014836;28;20439;-84
2023/08/03 08:07:49;;;;;;;1.00;0.80;;;;;;;16.00;100.00;98481.59;4981312;28;20432;-82
2023/08/03 08:10:17;;;;;;;0.73;0.70;;;;;;;15.97;100.00;98499.59;4982649;28;20429;-81
2023/08/03 08:12:50;;;;;;;2.58;0.90;;;;;;;15.94;100.00;98492.13;4988479;28;20436;-81
2023/08/03 08:15:24;;;;;;;2.28;0.70;;;;;;;15.77;100.00;98493.41;4983865;28;21251;-82
2023/08/03 08:17:58;;;;;;;8.98;0.80;;;;;;;15.70;100.00;98504.28;4986828;28;20425;-82
2023/08/03 08:20:31;;;;;;;2.42;0.80;;;;;;;15.88;100.00;98507.31;4981487;28;20433;-83
2023/08/03 08:22:59;;;;;;;2.50;1.00;;;;;;;15.72;100.00;98514.88;4978829;28;20433;-84
2023/08/03 08:25:33;;;;;;;2.08;1.20;;;;;;;15.58;100.00;98513.47;4981234;28;20441;-79
2023/08/03 08:28:01;;;;;;;2.58;1.25;;;;;;;15.58;100.00;98515.44;4983827;28;20445;-82
2023/08/03 08:30:36;;;;;;;2.33;1.27;;;;;;;15.63;100.00;98515.91;4982556;28;20443;-83
2023/08/03 08:33:04;;;;;;;2.63;1.30;;;;;;;15.57;100.00;98516.59;4989001;28;20433;-84
2023/08/03 08:35:33;;;;;;;4.13;1.67;;;;;;;15.64;100.00;98513.94;4984557;28;22029;-84
2023/08/03 08:38:01;;;;;;;3.38;1.60;;;;;;;15.82;100.00;98519.75;4960547;28;20434;-84
2023/08/03 08:40:35;;;;;;;2.53;1.50;;;;;;;15.82;100.00;98519.75;4962320;28;20516;-79
2023/08/03 08:43:09;;;;;;;3.80;1.63;;;;;;;15.76;100.00;98518.47;4970373;28;20427;-84
2023/08/03 08:45:39;;;;;;;2.53;1.63;;;;;;;15.84;100.00;98524.88;4967261;28;20441;-82
2023/08/03 08:48:13;;;;;;;3.70;1.88;;;;;;;15.88;100.00;98529.25;4966566;28;20457;-83
2023/08/03 08:50:42;;;;;;;2.28;1.77;;;;;;;15.94;100.00;98530.53;4964906;28;20506;-82
2023/08/03 08:53:14;;;;;;;3.97;1.90;;;;;;;15.98;100.00;98542.34;4981039;28;21201;-83
2023/08/03 08:55:42;;;;;;;3.80;2.10;;;;;;;15.97;100.00;98534.47;4979366;28;20434;-82
2023/08/03 08:58:11;;;;;;;3.67;1.90;;;;;;;15.89;100.00;98544.53;4978734;28;20442;-83
2023/08/03 09:00:46;;;;;;;2.97;1.70;;;;;;;15.84;100.00;98547.63;4960287;28;20443;-85
2023/08/03 09:03:20;;;;;;;2.28;1.52;;;;;;;15.83;100.00;98545.25;4966645;28;20430;-78
2023/08/03 09:05:59;;;;;;;2.95;1.40;;;;;;;15.88;100.00;98562.19;4968258;28;21172;-82
2023/08/03 09:08:28;;;;;;;2.00;1.20;;;;;;;15.86;100.00;98564.47;4961519;28;20438;-84
2023/08/03 09:10:57;;;;;;;3.53;1.38;;;;;;;15.84;100.00;98568.75;4960797;28;20437;-83
2023/08/03 09:13:27;;;;;;;2.70;1.60;;;;;;;15.86;100.00;98577.41;4967875;28;20434;-85
2023/08/03 09:16:02;;;;;;;3.85;1.80;;;;;;;15.78;100.00;98577.28;4965259;28;20449;-83
2023/08/03 09:18:32;;;;;;;5.05;2.15;;;;;;;15.81;100.00;98578.50;4968628;28;20438;-82
2023/08/03 09:21:10;;;;;;;4.27;2.00;;;;;;;15.79;100.00;98589.03;4967990;28;21150;-78
2023/08/03 09:23:43;;;;;;;3.90;2.25;;;;;;;15.77;100.00;98588.59;4964441;28;20441;-82
2023/08/03 09:26:13;;;;;;;4.68;2.17;;;;;;;15.93;100.00;98588.50;4962739;28;20434;-83
2023/08/03 09:28:44;;;;;;;5.43;2.20;;;;;;;15.89;100.00;98599.41;4958509;28;20430;-82
2023/08/03 09:31:26;;;;;;;4.82;2.40;;;;;;;16.22;100.00;98603.44;4966392;28;20441;-80
2023/08/03 09:33:59;;;;;;;4.70;2.40;;;;;;;16.12;100.00;98598.59;4964337;28;21022;-81
2023/08/03 09:36:32;;;;;;;5.85;2.30;;;;;;;16.28;100.00;98601.19;4963882;28;20794;-82
2023/08/03 09:39:11;;;;;;;4.80;3.00;;;;;;;16.31;100.00;98597.72;4967372;28;20434;-82
2023/08/03 09:41:44;;;;;;;9.50;5.25;;;;;;;16.38;100.00;98608.78;4962029;28;20787;-83
2023/08/03 09:44:14;;;;;;;6.65;3.00;;;;;;;16.32;100.00;98607.50;4968772;28;20984;-80
2023/08/03 09:47:02;;;;;;;5.40;3.20;;;;;;;16.64;100.00;98601.69;4976728;28;20434;-84
2023/08/03 09:49:31;;;;;;;7.60;3.10;;;;;;;16.65;100.00;98614.25;4964306;28;21339;-83
2023/08/03 09:52:07;;;;;;;6.63;3.00;;;;;;;16.70;100.00;98608.44;4985336;28;20805;-82
2023/08/03 09:54:40;;;;;;;8.60;3.00;;;;;;;16.84;100.00;98613.34;4985615;28;20456;-82
2023/08/03 09:57:16;;;;;;;6.00;3.40;;;;;;;17.02;100.00;98610.84;4984143;28;20436;-80
2023/08/03 09:59:46;;;;;;;5.78;3.20;;;;;;;17.16;100.00;98615.72;4990355;28;20892;-83
2023/08/03 10:02:23;;;;;;;5.88;2.90;;;;;;;17.24;100.00;98608.38;4986988;28;20433;-84
2023/08/03 10:04:56;;;;;;;7.53;3.10;;;;;;;17.47;100.00;98609.00;4984205;28;20491;-83
2023/08/03 10:07:29;;;;;;;6.15;2.80;;;;;;;17.42;100.00;98619.56;4987027;28;20950;-82
2023/08/03 10:09:59;;;;;;;5.43;2.70;;;;;;;17.57;100.00;98618.53;5000399;28;20432;-79
2023/08/03 10:12:39;;;;;;;6.57;2.72;;;;;;;17.64;100.00;98623.31;4985189;28;20460;-81
2023/08/03 10:15:10;;;;;;;4.63;2.40;;;;;;;17.60;100.00;98628.00;4985550;28;20443;-79
2023/08/03 10:17:41;;;;;;;5.40;2.20;;;;;;;17.54;100.00;98643.22;4987885;28;20443;-83
2023/08/03 10:20:10;;;;;;;3.28;2.20;;;;;;;17.82;100.00;98631.75;4986299;28;22209;-82
2023/08/03 10:23:08;;;;;;;5.30;2.30;;;;;;;18.20;100.00;98637.97;4985367;28;20432;-80
2023/08/03 10:26:00;;;;;;;4.65;2.30;;;;;;;18.22;100.00;98640.38;4988853;28;21492;-80
2023/08/03 10:28:47;;;;;;;6.00;2.30;;;;;;;17.76;100.00;98645.06;5003069;28;20434;-81
2023/08/03 10:31:17;;;;;;;6.03;2.08;;;;;;;17.42;100.00;98656.09;4992124;28;20443;-83
2023/08/03 10:34:23;;;;;;;5.00;2.30;;;;;;;17.03;100.00;98653.66;4985309;28;20440;-77
2023/08/03 10:36:53;;;;;;;7.18;2.17;;;;;;;16.42;100.00;98661.81;4981387;28;20449;-83
2023/08/03 10:39:48;;;;;;;4.63;2.05;;;;;;;16.37;100.00;98661.31;4981752;28;20459;-83
2023/08/03 10:42:25;;;;;;;6.85;2.50;;;;;;;16.55;100.00;98661.59;4993710;28;20439;-79
2023/08/03 10:45:30;;;;;;;6.03;2.60;;;;;;;16.62;100.00;98670.72;4991054;28;20433;-84
2023/08/03 10:48:28;;;;;;;4.70;2.65;;;;;;;16.59;100.00;98663.22;4993445;28;20435;-84
2023/08/03 10:51:03;;;;;;;4.25;2.70;;;;;;;16.59;100.00;98670.69;4995718;28;21097;-79
2023/08/03 10:53:36;;;;;;;5.83;2.80;;;;;;;16.63;100.00;98675.06;4993908;28;20455;-82
2023/08/03 10:56:14;;;;;;;4.95;2.40;;;;;;;16.46;100.00;98683.81;4962491;28;20430;-81
2023/08/03 10:58:50;;;;;;;4.97;2.30;;;;;;;16.49;100.00;98694.06;4971987;28;22454;-79
2023/08/03 11:01:24;;;;;;;5.83;2.77;;;;;;;16.46;100.00;98692.03;4973819;28;20430;-79
2023/08/03 11:03:53;;;;;;;4.30;2.70;;;;;;;16.41;100.00;98704.13;4971836;28;20445;-83
2023/08/03 11:06:29;;;;;;;7.27;3.10;;;;;;;16.34;100.00;98706.75;4974625;28;20437;-79
2023/08/03 11:08:57;;;;;;;6.55;2.80;;;;;;;16.13;100.00;98707.22;4975613;28;20909;-82
2023/08/03 11:11:32;;;;;;;3.58;2.00;;;;;;;15.89;100.00;98709.13;4968747;28;20437;-79
2023/08/03 11:14:05;;;;;;;4.77;1.70;;;;;;;15.76;100.00;98710.44;4979419;28;21208;-81
2023/08/03 11:16:39;;;;;;;2.03;1.38;;;;;;;15.56;100.00;98728.81;4973761;28;20451;-78
2023/08/03 11:19:07;;;;;;;3.20;1.40;;;;;;;15.54;100.00;98720.97;5006556;28;20466;-84
2023/08/03 11:21:42;;;;;;;3.28;1.50;;;;;;;15.45;100.00;98729.41;4969503;28;22340;-82
2023/08/03 11:24:16;;;;;;;2.42;1.40;;;;;;;15.53;100.00;98735.81;4977394;28;20430;-82
2023/08/03 11:26:44;;;;;;;5.90;1.40;;;;;;;15.48;100.00;98747.09;4971957;28;20437;-80
2023/08/03 11:29:18;;;;;;;3.35;1.52;;;;;;;15.58;100.00;98754.72;4969737;28;20437;-83
2023/08/03 11:31:46;;;;;;;3.10;1.35;;;;;;;15.41;100.00;98758.69;4971904;28;20430;-81
2023/08/03 11:34:20;;;;;;;4.35;1.60;;;;;;;15.42;100.00;98751.25;4968429;28;21169;-83
2023/08/03 11:36:54;;;;;;;4.20;1.83;;;;;;;15.47;100.00;98757.25;4968821;28;20442;-80
2023/08/03 11:39:23;;;;;;;4.75;1.73;;;;;;;15.51;100.00;98753.78;4970830;28;20442;-83
2023/08/03 11:41:52;;;;;;;3.70;1.80;;;;;;;15.54;100.00;98755.81;4968025;28;20438;-79
2023/08/03 11:44:25;;;;;;;3.35;1.70;;;;;;;15.61;100.00;98754.00;4965287;28;20441;-83
2023/08/03 11:47:04;;;;;;;2.60;1.73;;;;;;;15.65;100.00;98757.59;4968578;28;20429;-84